createdAt,value
2019-03-17T00:00:50.224Z,98626.12
2019-03-17T00:03:23.923Z,98628.56
2019-03-17T00:05:56.693Z,98632.78
2019-03-17T00:08:30.006Z,98625.23
2019-03-17T00:11:04.211Z,98618.12
2019-03-17T00:13:37.391Z,98610.69
2019-03-17T00:16:11.137Z,98612.46
2019-03-17T00:18:45.735Z,98603.23
2019-03-17T00:21:19.649Z,98600.51
2019-03-17T00:23:53.396Z,98598.98
2019-03-17T00:26:27.750Z,98590.20
2019-03-17T00:29:02.015Z,98588.91
2019-03-17T00:31:36.104Z,98588.22
2019-03-17T00:34:10.428Z,98575.84
2019-03-17T00:36:44.080Z,98577.88
2019-03-17T00:39:18.432Z,98568.08
2019-03-17T00:41:52.636Z,98571.23
2019-03-17T00:44:26.785Z,98576.01
2019-03-17T00:47:00.924Z,98572.56
2019-03-17T00:49:35.104Z,98572.48
2019-03-17T00:52:09.428Z,98578.97
2019-03-17T00:54:43.159Z,98574.65
2019-03-17T00:57:16.933Z,98576.50
2019-03-17T00:59:50.947Z,98579.94
2019-03-17T01:02:24.744Z,98577.27
2019-03-17T01:04:58.765Z,98581.33
2019-03-17T01:07:32.991Z,98581.30
2019-03-17T01:10:06.478Z,98572.70
2019-03-17T01:12:40.191Z,98575.14
2019-03-17T01:15:14.303Z,98571.52
2019-03-17T01:17:48.105Z,98568.91
2019-03-17T01:20:21.844Z,98564.41
2019-03-17T01:22:56.001Z,98569.84
2019-03-17T01:25:30.035Z,98559.93
2019-03-17T01:28:03.982Z,98550.14
2019-03-17T01:30:37.687Z,98547.80
2019-03-17T01:33:11.406Z,98541.95
2019-03-17T01:35:45.445Z,98536.17
2019-03-17T01:38:19.471Z,98530.55
2019-03-17T01:40:52.648Z,98535.95
2019-03-17T01:43:26.882Z,98540.59
2019-03-17T01:46:00.688Z,98544.27
2019-03-17T01:48:34.703Z,98546.94
2019-03-17T01:51:08.914Z,98544.72
2019-03-17T01:53:42.165Z,98553.02
2019-03-17T01:56:15.841Z,98549.59
2019-03-17T01:58:50.027Z,98555.86
2019-03-17T02:01:23.745Z,98541.97
2019-03-17T02:03:58.402Z,98545.80
2019-03-17T02:06:32.554Z,98550.55
2019-03-17T02:09:07.432Z,98539.74
2019-03-17T02:11:41.214Z,98541.63
2019-03-17T02:14:15.408Z,98536.27
2019-03-17T02:16:49.893Z,98533.51
2019-03-17T02:19:23.556Z,98533.32
2019-03-17T02:21:57.396Z,98532.34
2019-03-17T02:24:31.450Z,98534.06
2019-03-17T02:27:04.692Z,98539.10
2019-03-17T02:29:38.470Z,98535.84
2019-03-17T02:32:12.200Z,98525.52
2019-03-17T02:34:44.956Z,98534.31
2019-03-17T02:37:18.759Z,98524.19
2019-03-17T02:39:52.260Z,98519.93
2019-03-17T02:42:25.434Z,98518.06
2019-03-17T02:44:59.260Z,98515.64
2019-03-17T02:50:19.426Z,98515.39
2019-03-17T02:52:52.599Z,98512.17
2019-03-17T02:55:26.380Z,98509.52
2019-03-17T02:58:00.620Z,98508.80
2019-03-17T03:00:33.797Z,98507.19
2019-03-17T03:03:07.027Z,98503.12
2019-03-17T03:05:54.164Z,98502.62
2019-03-17T03:08:16.053Z,98508.30
2019-03-17T03:10:50.169Z,98508.61
2019-03-17T03:13:24.179Z,98513.84
2019-03-17T03:15:58.293Z,98512.45
2019-03-17T03:18:31.815Z,98512.26
2019-03-17T03:21:05.497Z,98513.17
2019-03-17T03:23:39.651Z,98511.00
2019-03-17T03:26:13.745Z,98511.84
2019-03-17T03:28:47.451Z,98504.81
2019-03-17T03:31:21.186Z,98509.69
2019-03-17T03:33:54.886Z,98508.91
2019-03-17T03:36:29.278Z,98508.97
2019-03-17T03:39:03.499Z,98505.02
2019-03-17T03:41:37.292Z,98504.54
2019-03-17T03:44:11.038Z,98499.36
2019-03-17T03:46:45.200Z,98503.79
2019-03-17T03:49:20.485Z,98498.70
2019-03-17T03:51:54.595Z,98489.67
2019-03-17T03:54:28.151Z,98488.95
2019-03-17T03:57:02.194Z,98494.41
2019-03-17T03:59:36.303Z,98491.40
2019-03-17T04:02:10.515Z,98493.68
2019-03-17T04:04:44.350Z,98496.69
2019-03-17T04:07:18.138Z,98491.73
2019-03-17T04:09:52.139Z,98493.05
2019-03-17T04:12:26.277Z,98485.25
2019-03-17T04:15:00.521Z,98485.41
2019-03-17T04:17:34.913Z,98489.14
2019-03-17T04:20:08.559Z,98487.98
2019-03-17T04:22:42.194Z,98485.77
2019-03-17T04:25:17.553Z,98485.11
2019-03-17T04:27:51.349Z,98482.98
2019-03-17T04:30:25.067Z,98478.31
2019-03-17T04:32:58.843Z,98465.87
2019-03-17T04:35:32.960Z,98463.42
2019-03-17T04:38:06.463Z,98461.16
2019-03-17T04:40:40.279Z,98456.91
2019-03-17T04:43:14.287Z,98459.83
2019-03-17T04:45:48.020Z,98459.27
2019-03-17T04:48:22.204Z,98458.21
2019-03-17T04:50:56.323Z,98453.63
2019-03-17T04:53:30.102Z,98453.48
2019-03-17T04:56:04.130Z,98457.23
2019-03-17T04:58:38.242Z,98451.28
2019-03-17T05:01:12.383Z,98457.23
2019-03-17T05:03:46.397Z,98460.08
2019-03-17T05:06:19.971Z,98460.74
2019-03-17T05:08:53.991Z,98461.19
2019-03-17T05:11:27.873Z,98458.62
2019-03-17T05:14:01.902Z,98455.34
2019-03-17T05:16:35.924Z,98455.70
2019-03-17T05:19:09.834Z,98454.47
2019-03-17T05:21:44.163Z,98450.47
2019-03-17T05:24:17.866Z,98446.09
2019-03-17T05:26:51.166Z,98450.97
2019-03-17T05:29:24.718Z,98448.61
2019-03-17T05:31:58.748Z,98445.63
2019-03-17T05:34:33.180Z,98441.53
2019-03-17T05:37:07.210Z,98436.89
2019-03-17T05:39:41.417Z,98435.41
2019-03-17T05:42:15.447Z,98437.92
2019-03-17T05:44:49.627Z,98445.13
2019-03-17T05:47:23.868Z,98438.75
2019-03-17T05:49:57.661Z,98447.13
2019-03-17T05:52:30.985Z,98446.30
2019-03-17T05:55:04.159Z,98444.34
2019-03-17T05:57:37.893Z,98444.17
2019-03-17T06:00:13.165Z,98445.46
2019-03-17T06:02:46.525Z,98445.83
2019-03-17T06:05:20.238Z,98444.71
2019-03-17T06:07:53.906Z,98440.59
2019-03-17T06:10:27.926Z,98443.29
2019-03-17T06:13:01.918Z,98439.20
2019-03-17T06:15:36.434Z,98438.03
2019-03-17T06:18:10.525Z,98438.89
2019-03-17T06:20:44.360Z,98438.42
2019-03-17T06:23:18.367Z,98439.61
2019-03-17T06:25:53.606Z,98428.92
2019-03-17T06:28:27.210Z,98428.00
2019-03-17T06:31:01.218Z,98436.30
2019-03-17T06:33:34.935Z,98437.55
2019-03-17T06:36:09.141Z,98432.84
2019-03-17T06:38:42.927Z,98429.14
2019-03-17T06:41:17.191Z,98423.70
2019-03-17T06:43:51.381Z,98422.86
2019-03-17T06:46:25.468Z,98414.52
2019-03-17T06:48:59.406Z,98420.09
2019-03-17T06:51:33.227Z,98422.93
2019-03-17T06:54:07.327Z,98419.84
2019-03-17T06:56:41.332Z,98421.42
2019-03-17T06:59:17.665Z,98421.11
2019-03-17T07:01:50.793Z,98419.28
2019-03-17T07:04:25.044Z,98424.27
2019-03-17T07:06:58.731Z,98429.19
2019-03-17T07:09:32.170Z,98423.71
2019-03-17T07:12:05.917Z,98423.98
2019-03-17T07:14:39.410Z,98420.94
2019-03-17T07:17:12.785Z,98421.34
2019-03-17T07:19:45.726Z,98416.59
2019-03-17T07:22:19.164Z,98412.83
2019-03-17T07:24:51.592Z,98412.98
2019-03-17T07:27:25.547Z,98418.30
2019-03-17T07:29:58.338Z,98422.61
2019-03-17T07:32:30.804Z,98413.38
2019-03-17T07:35:02.792Z,98404.14
2019-03-17T07:37:35.272Z,98410.09
2019-03-17T07:40:08.908Z,98400.06
2019-03-17T07:42:42.527Z,98399.91
2019-03-17T07:45:16.542Z,98392.00
2019-03-17T07:47:49.192Z,98394.60
2019-03-17T07:50:22.230Z,98399.09
2019-03-17T07:52:54.857Z,98394.34
2019-03-17T07:55:27.736Z,98399.34
2019-03-17T07:58:01.042Z,98386.41
2019-03-17T08:00:35.301Z,98382.38
2019-03-17T08:03:09.225Z,98383.20
2019-03-17T08:05:41.311Z,98373.23
2019-03-17T08:08:13.298Z,98373.84
2019-03-17T08:10:45.694Z,98373.70
2019-03-17T08:13:18.933Z,98377.36
2019-03-17T08:15:51.419Z,98377.84
2019-03-17T08:18:24.326Z,98373.00
2019-03-17T08:20:57.711Z,98369.12
2019-03-17T08:23:30.143Z,98364.44
2019-03-17T08:26:03.358Z,98360.69
2019-03-17T08:28:36.246Z,98353.48
2019-03-17T08:31:08.720Z,98358.30
2019-03-17T08:33:41.094Z,98370.26
2019-03-17T08:36:14.770Z,98364.92
2019-03-17T08:38:49.200Z,98369.86
2019-03-17T08:41:23.435Z,98373.09
2019-03-17T08:43:56.914Z,98369.87
2019-03-17T08:46:30.633Z,98369.19
2019-03-17T08:49:04.246Z,98364.45
2019-03-17T08:51:38.803Z,98353.72
2019-03-17T08:54:12.852Z,98358.16
2019-03-17T08:56:46.960Z,98354.75
2019-03-17T08:59:21.220Z,98353.31
2019-03-17T09:01:55.257Z,98338.71
2019-03-17T09:04:29.455Z,98341.80
2019-03-17T09:07:03.138Z,98345.81
2019-03-17T09:09:37.375Z,98340.89
2019-03-17T09:12:11.184Z,98319.81
2019-03-17T09:14:44.839Z,98342.48
2019-03-17T09:17:19.175Z,98349.88
2019-03-17T09:19:53.273Z,98339.62
2019-03-17T09:22:27.301Z,98339.41
2019-03-17T09:25:01.399Z,98338.39
2019-03-17T09:27:36.918Z,98325.17
2019-03-17T09:30:11.242Z,98316.73
2019-03-17T09:32:45.294Z,98329.58
2019-03-17T09:35:19.408Z,98335.27
2019-03-17T09:37:53.112Z,98334.03
2019-03-17T09:40:27.020Z,98322.83
2019-03-17T09:43:01.219Z,98312.03
2019-03-17T09:45:35.142Z,98314.33
2019-03-17T09:48:08.845Z,98313.72
2019-03-17T09:50:43.049Z,98312.34
2019-03-17T09:53:16.782Z,98306.92
2019-03-17T09:55:50.780Z,98312.02
2019-03-17T09:58:24.602Z,98302.08
2019-03-17T10:00:57.886Z,98295.92
2019-03-17T10:03:31.112Z,98303.45
2019-03-17T10:06:05.169Z,98297.72
2019-03-17T10:08:38.902Z,98295.75
2019-03-17T10:11:12.302Z,98297.45
2019-03-17T10:13:45.867Z,98293.77
2019-03-17T10:16:19.898Z,98296.18
2019-03-17T10:18:53.590Z,98285.97
2019-03-17T10:21:27.614Z,98284.87
2019-03-17T10:24:00.898Z,98288.77
2019-03-17T10:26:34.490Z,98284.42
2019-03-17T10:29:08.092Z,98296.58
2019-03-17T10:31:42.123Z,98294.11
2019-03-17T10:34:15.428Z,98287.72
2019-03-17T10:36:49.557Z,98272.34
2019-03-17T10:39:23.145Z,98272.39
2019-03-17T10:41:56.681Z,98265.98
2019-03-17T10:44:30.931Z,98283.25
2019-03-17T10:47:04.844Z,98257.68
2019-03-17T10:49:38.977Z,98262.97
2019-03-17T10:52:13.113Z,98258.97
2019-03-17T10:54:47.098Z,98252.31
2019-03-17T10:57:20.856Z,98246.84
2019-03-17T10:59:54.114Z,98235.82
2019-03-17T11:02:30.894Z,98222.87
2019-03-17T11:05:06.028Z,98231.97
2019-03-17T11:07:43.443Z,98225.19
2019-03-17T11:10:15.907Z,98230.05
2019-03-17T11:12:49.047Z,98228.58
2019-03-17T11:15:20.968Z,98223.34
2019-03-17T11:17:52.880Z,98218.59
2019-03-17T11:20:25.391Z,98218.31
2019-03-17T11:22:58.154Z,98216.94
2019-03-17T11:25:30.580Z,98208.13
2019-03-17T11:28:02.929Z,98211.80
2019-03-17T11:30:35.324Z,98193.30
2019-03-17T11:33:08.318Z,98186.87
2019-03-17T11:35:42.019Z,98179.98
2019-03-17T11:38:15.026Z,98190.33
2019-03-17T11:40:47.942Z,98181.84
2019-03-17T11:43:20.339Z,98174.26
2019-03-17T11:45:53.070Z,98165.08
2019-03-17T11:48:25.820Z,98180.16
2019-03-17T11:50:58.838Z,98174.67
2019-03-17T11:53:31.198Z,98183.22
2019-03-17T11:56:04.939Z,98174.64
2019-03-17T11:58:37.326Z,98156.93
2019-03-17T12:01:10.249Z,98167.09
2019-03-17T12:03:43.030Z,98168.00
2019-03-17T12:06:15.427Z,98147.50
2019-03-17T12:08:48.224Z,98170.88
2019-03-17T12:11:20.714Z,98149.25
2019-03-17T12:13:54.034Z,98150.76
2019-03-17T12:16:26.411Z,98139.30
2019-03-17T12:18:58.847Z,98136.94
2019-03-17T12:21:31.266Z,98131.21
2019-03-17T12:24:03.595Z,98128.28
2019-03-17T12:26:35.994Z,98131.20
2019-03-17T12:29:08.702Z,98126.94
2019-03-17T12:31:41.050Z,98118.09
2019-03-17T12:34:13.431Z,98122.38
2019-03-17T12:36:46.317Z,98116.97
2019-03-17T12:39:18.677Z,98109.36
2019-03-17T12:41:51.064Z,98099.86
2019-03-17T12:44:24.831Z,98093.84
2019-03-17T12:46:57.265Z,98093.14
2019-03-17T12:49:30.634Z,98080.56
2019-03-17T12:52:03.917Z,98074.33
2019-03-17T12:54:36.277Z,98073.12
2019-03-17T12:57:08.695Z,98059.91
2019-03-17T12:59:40.655Z,98063.14
2019-03-17T13:02:13.981Z,98050.02
2019-03-17T13:04:46.404Z,98056.49
2019-03-17T13:07:18.792Z,98060.18
2019-03-17T13:09:51.216Z,98045.03
2019-03-17T13:12:24.572Z,98049.02
2019-03-17T13:14:57.554Z,98035.18
2019-03-17T13:17:29.398Z,98042.00
2019-03-17T13:20:01.415Z,98040.60
2019-03-17T13:22:34.200Z,98033.56
2019-03-17T13:25:07.593Z,98051.91
2019-03-17T13:27:40.828Z,98039.82
2019-03-17T13:30:14.041Z,98036.79
2019-03-17T13:32:46.633Z,98042.16
2019-03-17T13:35:20.469Z,98036.51
2019-03-17T13:37:53.528Z,98031.02
2019-03-17T13:40:30.207Z,98028.86
2019-03-17T13:43:00.547Z,98030.48
2019-03-17T13:45:32.976Z,98037.90
2019-03-17T13:48:05.831Z,98013.35
2019-03-17T13:50:39.720Z,98015.36
2019-03-17T13:53:13.030Z,98018.62
2019-03-17T13:55:45.392Z,98032.44
2019-03-17T13:58:18.083Z,98041.84
2019-03-17T14:00:51.058Z,98032.30
2019-03-17T14:03:23.931Z,98024.91
2019-03-17T14:05:57.500Z,98019.06
2019-03-17T14:08:30.759Z,98032.56
2019-03-17T14:11:04.489Z,98024.72
2019-03-17T14:13:37.205Z,98045.52
2019-03-17T14:16:09.678Z,98035.75
2019-03-17T14:18:42.131Z,98055.94
2019-03-17T14:21:15.517Z,98049.82
2019-03-17T14:23:49.366Z,98058.05
2019-03-17T14:26:22.372Z,98054.50
2019-03-17T14:28:55.483Z,98057.27
2019-03-17T14:31:29.164Z,98050.66
2019-03-17T14:34:02.387Z,98047.27
2019-03-17T14:36:35.800Z,98042.52
2019-03-17T14:39:10.067Z,98031.97
2019-03-17T14:41:43.489Z,98027.14
2019-03-17T14:44:16.233Z,98021.55
2019-03-17T14:46:49.040Z,98017.01
2019-03-17T14:49:22.432Z,98009.17
2019-03-17T14:51:55.857Z,98000.17
2019-03-17T14:54:29.894Z,97996.69
2019-03-17T14:57:03.566Z,98014.56
2019-03-17T14:59:36.385Z,98022.62
2019-03-17T15:02:10.023Z,98035.95
2019-03-17T15:04:43.657Z,98032.09
2019-03-17T15:07:16.099Z,98043.07
2019-03-17T15:09:49.320Z,98039.05
2019-03-17T15:12:22.609Z,98041.59
2019-03-17T15:14:56.558Z,98034.89
2019-03-17T15:17:30.905Z,98034.77
2019-03-17T15:20:04.431Z,98039.09
2019-03-17T15:22:38.535Z,98034.59
2019-03-17T15:25:12.242Z,98032.10
2019-03-17T15:27:46.542Z,98026.17
2019-03-17T15:30:25.082Z,98025.38
2019-03-17T15:32:59.305Z,98010.94
2019-03-17T15:35:33.841Z,98016.84
2019-03-17T15:38:07.833Z,98017.65
2019-03-17T15:40:41.966Z,98009.30
2019-03-17T15:43:15.619Z,98007.64
2019-03-17T15:45:49.483Z,98012.78
2019-03-17T15:48:23.340Z,98008.66
2019-03-17T15:50:56.638Z,98010.83
2019-03-17T15:53:30.874Z,98014.65
2019-03-17T15:56:04.555Z,98007.95
2019-03-17T15:58:38.631Z,98008.45
2019-03-17T16:01:12.370Z,98011.78
2019-03-17T16:03:45.734Z,98002.34
2019-03-17T16:06:19.198Z,98015.52
2019-03-17T16:08:53.426Z,98009.75
2019-03-17T16:11:31.199Z,98010.16
2019-03-17T16:14:02.665Z,98019.22
2019-03-17T16:16:37.079Z,98023.09
2019-03-17T16:19:11.499Z,98022.83
2019-03-17T16:21:45.402Z,98042.23
2019-03-17T16:24:19.216Z,98039.11
2019-03-17T16:26:53.455Z,98048.41
2019-03-17T16:29:27.542Z,98049.14
2019-03-17T16:32:01.631Z,98044.94
2019-03-17T16:34:35.640Z,98053.33
2019-03-17T16:37:09.751Z,98052.28
2019-03-17T16:39:43.783Z,98062.36
2019-03-17T16:42:18.001Z,98049.88
2019-03-17T16:44:50.888Z,98059.53
2019-03-17T16:47:24.513Z,98065.31
2019-03-17T16:49:59.018Z,98060.34
2019-03-17T16:52:33.029Z,98067.49
2019-03-17T16:55:07.148Z,98073.63
2019-03-17T16:57:41.258Z,98081.60
2019-03-17T17:00:19.303Z,98080.19
2019-03-17T17:02:52.635Z,98081.80
2019-03-17T17:05:25.322Z,98079.13
2019-03-17T17:07:59.329Z,98077.79
2019-03-17T17:10:32.439Z,98080.78
2019-03-17T17:13:06.234Z,98086.31
2019-03-17T17:15:39.130Z,98088.92
2019-03-17T17:18:13.344Z,98085.73
2019-03-17T17:20:47.255Z,98089.39
2019-03-17T17:23:21.055Z,98088.18
2019-03-17T17:25:54.944Z,98094.77
2019-03-17T17:28:29.698Z,98099.39
2019-03-17T17:31:03.790Z,98095.82
2019-03-17T17:33:37.415Z,98100.26
2019-03-17T17:36:11.137Z,98100.40
2019-03-17T17:38:44.927Z,98100.50
2019-03-17T17:41:18.837Z,98098.54
2019-03-17T17:43:52.929Z,98104.63
2019-03-17T17:46:26.652Z,98100.40
2019-03-17T17:49:01.174Z,98097.48
2019-03-17T17:51:34.783Z,98095.96
2019-03-17T17:54:09.002Z,98091.30
2019-03-17T17:56:42.989Z,98093.62
2019-03-17T17:59:16.686Z,98095.77
2019-03-17T18:01:51.103Z,98092.48
2019-03-17T18:04:24.949Z,98094.09
2019-03-17T18:06:59.059Z,98092.58
2019-03-17T18:09:32.969Z,98093.58
2019-03-17T18:12:05.758Z,98096.91
2019-03-17T18:14:39.854Z,98091.67
2019-03-17T18:17:13.950Z,98093.55
2019-03-17T18:19:47.960Z,98096.17
2019-03-17T18:22:21.743Z,98096.45
2019-03-17T18:24:55.336Z,98094.95
2019-03-17T18:27:27.661Z,98097.38
2019-03-17T18:30:00.023Z,98097.92
2019-03-17T18:32:33.695Z,98093.75
2019-03-17T18:35:06.853Z,98093.36
2019-03-17T18:37:39.825Z,98100.61
2019-03-17T18:40:14.234Z,98099.06
2019-03-17T18:42:47.530Z,98096.41
2019-03-17T18:45:21.028Z,98095.94
2019-03-17T18:47:57.329Z,98099.91
2019-03-17T18:50:28.443Z,98098.66
2019-03-17T18:53:01.869Z,98103.16
2019-03-17T18:55:34.746Z,98102.81
2019-03-17T18:58:07.638Z,98111.53
2019-03-17T19:00:40.737Z,98107.19
2019-03-17T19:03:13.684Z,98111.42
2019-03-17T19:05:46.650Z,98112.66
2019-03-17T19:08:19.737Z,98116.41
2019-03-17T19:10:53.493Z,98117.27
2019-03-17T19:13:25.889Z,98125.77
2019-03-17T19:15:58.395Z,98137.78
2019-03-17T19:18:30.761Z,98141.52
2019-03-17T19:21:04.157Z,98142.44
2019-03-17T19:23:37.227Z,98140.80
2019-03-17T19:26:11.106Z,98139.16
2019-03-17T19:28:43.192Z,98137.17
2019-03-17T19:31:16.313Z,98138.41
2019-03-17T19:33:48.732Z,98141.00
2019-03-17T19:36:21.213Z,98146.91
2019-03-17T19:38:54.228Z,98151.82
2019-03-17T19:41:27.412Z,98153.63
2019-03-17T19:44:00.273Z,98160.81
2019-03-17T19:46:33.745Z,98162.36
2019-03-17T19:49:09.374Z,98170.59
2019-03-17T19:51:42.414Z,98175.55
2019-03-17T19:54:15.386Z,98182.69
2019-03-17T19:56:54.262Z,98187.03
2019-03-17T19:59:26.284Z,98233.41
2019-03-17T20:01:59.210Z,98291.84
2019-03-17T20:04:35.157Z,98303.46
2019-03-17T20:07:08.163Z,98315.19
2019-03-17T20:09:41.363Z,98336.77
2019-03-17T20:12:14.731Z,98344.48
2019-03-17T20:14:47.959Z,98358.03
2019-03-17T20:17:20.904Z,98411.17
2019-03-17T20:19:53.296Z,98400.66
2019-03-17T20:22:26.377Z,98402.29
2019-03-17T20:24:59.269Z,98414.89
2019-03-17T20:27:31.739Z,98419.20
2019-03-17T20:30:03.725Z,98433.58
2019-03-17T20:32:36.725Z,98436.28
2019-03-17T20:35:11.199Z,98449.34
2019-03-17T20:37:44.529Z,98457.94
2019-03-17T20:40:17.082Z,98468.84
2019-03-17T20:42:50.073Z,98489.46
2019-03-17T20:45:23.188Z,98501.70
2019-03-17T20:47:55.668Z,98505.20
2019-03-17T20:50:28.053Z,98515.69
2019-03-17T20:53:01.069Z,98522.92
2019-03-17T20:55:33.495Z,98522.44
2019-03-17T20:58:06.386Z,98530.13
2019-03-17T21:00:39.810Z,98538.55
2019-03-17T21:03:13.530Z,98535.03
2019-03-17T21:05:46.596Z,98536.77
2019-03-17T21:08:20.164Z,98538.22
2019-03-17T21:10:54.307Z,98541.53
2019-03-17T21:13:27.888Z,98537.17
2019-03-17T21:16:01.607Z,98539.37
2019-03-17T21:18:35.336Z,98537.23
2019-03-17T21:21:09.834Z,98537.30
2019-03-17T21:23:46.321Z,98538.97
2019-03-17T21:26:19.702Z,98539.23
2019-03-17T21:28:53.448Z,98539.58
2019-03-17T21:31:27.413Z,98539.77
2019-03-17T21:34:01.512Z,98538.76
2019-03-17T21:36:35.290Z,98543.30
2019-03-17T21:39:10.190Z,98549.95
2019-03-17T21:41:44.769Z,98563.52
2019-03-17T21:44:17.763Z,98557.98
2019-03-17T21:46:51.923Z,98551.21
2019-03-17T21:49:25.996Z,98553.36
2019-03-17T21:52:00.127Z,98551.36
2019-03-17T21:54:33.405Z,98550.64
2019-03-17T21:57:07.409Z,98560.70
2019-03-17T21:59:40.701Z,98571.13
2019-03-17T22:02:14.864Z,98566.28
2019-03-17T22:04:48.950Z,98564.72
2019-03-17T22:07:22.684Z,98557.67
2019-03-17T22:09:56.707Z,98558.13
2019-03-17T22:12:30.621Z,98562.61
2019-03-17T22:15:04.743Z,98568.55
2019-03-17T22:17:38.287Z,98566.34
2019-03-17T22:20:11.380Z,98569.32
2019-03-17T22:22:45.036Z,98565.59
2019-03-17T22:25:18.175Z,98561.66
2019-03-17T22:27:51.775Z,98567.84
2019-03-17T22:30:25.473Z,98577.90
2019-03-17T22:32:58.704Z,98587.38
2019-03-17T22:35:32.984Z,98584.92
2019-03-17T22:38:06.722Z,98588.09
2019-03-17T22:40:40.678Z,98598.94
2019-03-17T22:43:14.431Z,98613.15
2019-03-17T22:45:48.549Z,98617.16
2019-03-17T22:48:22.530Z,98637.73
2019-03-17T22:50:57.192Z,98642.83
2019-03-17T22:53:31.049Z,98633.61
2019-03-17T22:56:04.981Z,98637.20
2019-03-17T22:58:38.537Z,98639.59
2019-03-17T23:01:11.944Z,98653.72
2019-03-17T23:03:45.625Z,98668.28
2019-03-17T23:06:19.331Z,98674.03
2019-03-17T23:08:53.017Z,98661.91
2019-03-17T23:11:26.936Z,98660.45
2019-03-17T23:14:00.128Z,98672.91
2019-03-17T23:16:33.839Z,98684.58
2019-03-17T23:19:08.256Z,98690.95
2019-03-17T23:21:41.948Z,98704.36
2019-03-17T23:24:15.979Z,98710.92
2019-03-17T23:26:49.711Z,98713.35
2019-03-17T23:29:23.895Z,98719.64
2019-03-17T23:31:57.210Z,98730.38
2019-03-17T23:34:31.511Z,98727.59
2019-03-17T23:37:05.514Z,98737.98
2019-03-17T23:39:39.548Z,98731.56
2019-03-17T23:42:13.643Z,98727.45
2019-03-17T23:44:49.174Z,98733.97
2019-03-17T23:47:23.590Z,98742.63
2019-03-17T23:49:57.198Z,98743.88
2019-03-17T23:52:31.222Z,98751.70
2019-03-17T23:55:05.012Z,98746.84
2019-03-17T23:57:38.761Z,98738.59
